sensor_id;sensor_type;location;lat;lon;timestamp;temperature;humidity
17571;DHT22;8903;52.220;20.978;2022-07-05T00:00:06;21.00;99.90
17571;DHT22;8903;52.220;20.978;2022-07-05T00:02:38;20.90;99.90
17571;DHT22;8903;52.220;20.978;2022-07-05T00:05:04;20.80;99.90
17571;DHT22;8903;52.220;20.978;2022-07-05T00:07:31;20.70;99.90
17571;DHT22;8903;52.220;20.978;2022-07-05T00:09:58;20.60;99.90
17571;DHT22;8903;52.220;20.978;2022-07-05T00:12:25;20.60;99.90
17571;DHT22;8903;52.220;20.978;2022-07-05T00:14:54;20.50;99.90
17571;DHT22;8903;52.220;20.978;2022-07-05T00:17:20;20.50;99.90
17571;DHT22;8903;52.220;20.978;2022-07-05T00:19:47;20.40;99.90
17571;DHT22;8903;52.220;20.978;2022-07-05T00:22:14;20.40;99.90
17571;DHT22;8903;52.220;20.978;2022-07-05T00:24:41;20.40;99.90
17571;DHT22;8903;52.220;20.978;2022-07-05T00:27:07;20.40;99.90
17571;DHT22;8903;52.220;20.978;2022-07-05T00:29:34;20.30;99.90
17571;DHT22;8903;52.220;20.978;2022-07-05T00:32:02;20.30;99.90
17571;DHT22;8903;52.220;20.978;2022-07-05T00:34:29;20.30;99.90
17571;DHT22;8903;52.220;20.978;2022-07-05T00:36:55;20.30;99.90
17571;DHT22;8903;52.220;20.978;2022-07-05T00:39:22;20.30;99.90
17571;DHT22;8903;52.220;20.978;2022-07-05T00:41:49;20.30;99.90
17571;DHT22;8903;52.220;20.978;2022-07-05T00:44:15;20.30;99.90
17571;DHT22;8903;52.220;20.978;2022-07-05T00:46:44;20.30;99.90
17571;DHT22;8903;52.220;20.978;2022-07-05T00:49:12;20.30;99.90
17571;DHT22;8903;52.220;20.978;2022-07-05T00:51:39;20.40;99.90
17571;DHT22;8903;52.220;20.978;2022-07-05T00:54:06;20.40;99.90
17571;DHT22;8903;52.220;20.978;2022-07-05T00:56:32;20.40;99.90
17571;DHT22;8903;52.220;20.978;2022-07-05T00:59:00;20.40;99.90
17571;DHT22;8903;52.220;20.978;2022-07-05T01:01:27;20.40;99.90
17571;DHT22;8903;52.220;20.978;2022-07-05T01:03:54;20.40;99.90
17571;DHT22;8903;52.220;20.978;2022-07-05T01:06:22;20.30;99.90
17571;DHT22;8903;52.220;20.978;2022-07-05T01:08:48;20.40;99.90
17571;DHT22;8903;52.220;20.978;2022-07-05T01:11:17;20.30;99.90
17571;DHT22;8903;52.220;20.978;2022-07-05T01:13:43;20.30;99.90
17571;DHT22;8903;52.220;20.978;2022-07-05T01:16:10;20.30;99.90
17571;DHT22;8903;52.220;20.978;2022-07-05T01:18:37;20.20;99.90
17571;DHT22;8903;52.220;20.978;2022-07-05T01:21:04;20.20;99.90
17571;DHT22;8903;52.220;20.978;2022-07-05T01:23:32;20.10;99.90
17571;DHT22;8903;52.220;20.978;2022-07-05T01:25:59;20.00;99.90
17571;DHT22;8903;52.220;20.978;2022-07-05T01:28:26;19.90;99.90
17571;DHT22;8903;52.220;20.978;2022-07-05T01:30:53;19.80;99.90
17571;DHT22;8903;52.220;20.978;2022-07-05T01:33:20;19.80;99.90
17571;DHT22;8903;52.220;20.978;2022-07-05T01:35:52;19.70;99.90
17571;DHT22;8903;52.220;20.978;2022-07-05T01:38:19;19.60;99.90
17571;DHT22;8903;52.220;20.978;2022-07-05T01:40:47;19.60;99.90
17571;DHT22;8903;52.220;20.978;2022-07-05T01:43:17;19.50;99.90
17571;DHT22;8903;52.220;20.978;2022-07-05T01:45:44;19.50;99.90
17571;DHT22;8903;52.220;20.978;2022-07-05T01:48:12;19.50;99.90
17571;DHT22;8903;52.220;20.978;2022-07-05T01:50:40;19.40;99.90
17571;DHT22;8903;52.220;20.978;2022-07-05T01:53:08;19.40;99.90
17571;DHT22;8903;52.220;20.978;2022-07-05T01:55:37;19.30;99.90
17571;DHT22;8903;52.220;20.978;2022-07-05T01:58:05;19.30;99.90
17571;DHT22;8903;52.220;20.978;2022-07-05T02:00:40;19.30;99.90
17571;DHT22;8903;52.220;20.978;2022-07-05T02:03:07;19.20;99.90
17571;DHT22;8903;52.220;20.978;2022-07-05T02:05:40;19.10;99.90
17571;DHT22;8903;52.220;20.978;2022-07-05T02:08:11;19.10;99.90
17571;DHT22;8903;52.220;20.978;2022-07-05T02:10:38;19.10;99.90
17571;DHT22;8903;52.220;20.978;2022-07-05T02:13:07;19.10;99.90
17571;DHT22;8903;52.220;20.978;2022-07-05T02:15:35;19.00;99.90
17571;DHT22;8903;52.220;20.978;2022-07-05T02:18:02;18.90;99.90
17571;DHT22;8903;52.220;20.978;2022-07-05T02:20:30;18.90;99.90
17571;DHT22;8903;52.220;20.978;2022-07-05T02:22:59;18.90;99.90
17571;DHT22;8903;52.220;20.978;2022-07-05T02:25:27;18.80;99.90
17571;DHT22;8903;52.220;20.978;2022-07-05T02:27:56;18.80;99.90
17571;DHT22;8903;52.220;20.978;2022-07-05T02:30:24;18.80;99.90
17571;DHT22;8903;52.220;20.978;2022-07-05T02:32:51;18.80;99.90
17571;DHT22;8903;52.220;20.978;2022-07-05T02:35:18;18.80;99.90
17571;DHT22;8903;52.220;20.978;2022-07-05T02:37:45;18.70;99.90
17571;DHT22;8903;52.220;20.978;2022-07-05T02:40:12;18.70;99.90
17571;DHT22;8903;52.220;20.978;2022-07-05T02:42:44;18.60;99.90
17571;DHT22;8903;52.220;20.978;2022-07-05T02:45:13;18.60;99.90
17571;DHT22;8903;52.220;20.978;2022-07-05T02:47:42;18.60;99.90
17571;DHT22;8903;52.220;20.978;2022-07-05T02:50:10;18.60;99.90
17571;DHT22;8903;52.220;20.978;2022-07-05T02:52:41;18.60;99.90
17571;DHT22;8903;52.220;20.978;2022-07-05T02:55:10;18.60;99.90
17571;DHT22;8903;52.220;20.978;2022-07-05T02:57:38;18.60;99.90
17571;DHT22;8903;52.220;20.978;2022-07-05T03:00:07;18.60;99.90
17571;DHT22;8903;52.220;20.978;2022-07-05T03:02:39;18.50;99.90
17571;DHT22;8903;52.220;20.978;2022-07-05T03:05:09;18.50;99.90
17571;DHT22;8903;52.220;20.978;2022-07-05T03:07:38;18.60;99.90
17571;DHT22;8903;52.220;20.978;2022-07-05T03:10:05;18.60;99.90
17571;DHT22;8903;52.220;20.978;2022-07-05T03:12:33;18.60;99.90
17571;DHT22;8903;52.220;20.978;2022-07-05T03:15:01;18.70;99.90
17571;DHT22;8903;52.220;20.978;2022-07-05T03:17:28;18.70;99.90
17571;DHT22;8903;52.220;20.978;2022-07-05T03:19:55;18.70;99.90
17571;DHT22;8903;52.220;20.978;2022-07-05T03:22:25;18.70;99.90
17571;DHT22;8903;52.220;20.978;2022-07-05T03:24:51;18.70;99.90
17571;DHT22;8903;52.220;20.978;2022-07-05T03:27:19;18.70;99.90
17571;DHT22;8903;52.220;20.978;2022-07-05T03:29:49;18.70;99.90
17571;DHT22;8903;52.220;20.978;2022-07-05T03:32:16;18.70;99.90
17571;DHT22;8903;52.220;20.978;2022-07-05T03:34:43;18.70;99.90
17571;DHT22;8903;52.220;20.978;2022-07-05T03:37:10;18.70;99.90
17571;DHT22;8903;52.220;20.978;2022-07-05T03:39:38;18.70;99.90
17571;DHT22;8903;52.220;20.978;2022-07-05T03:42:06;18.70;99.90
17571;DHT22;8903;52.220;20.978;2022-07-05T03:44:33;18.70;99.90
17571;DHT22;8903;52.220;20.978;2022-07-05T03:47:03;18.70;99.90
17571;DHT22;8903;52.220;20.978;2022-07-05T03:49:30;18.70;99.90
17571;DHT22;8903;52.220;20.978;2022-07-05T03:51:56;18.70;99.90
17571;DHT22;8903;52.220;20.978;2022-07-05T03:54:23;18.70;99.90
17571;DHT22;8903;52.220;20.978;2022-07-05T03:56:52;18.70;99.90
17571;DHT22;8903;52.220;20.978;2022-07-05T03:59:19;18.70;99.90
17571;DHT22;8903;52.220;20.978;2022-07-05T04:01:47;18.70;99.90
17571;DHT22;8903;52.220;20.978;2022-07-05T04:04:14;18.70;99.90
17571;DHT22;8903;52.220;20.978;2022-07-05T04:06:41;18.70;99.90
17571;DHT22;8903;52.220;20.978;2022-07-05T04:09:08;18.70;99.90
17571;DHT22;8903;52.220;20.978;2022-07-05T04:11:36;18.70;99.90
17571;DHT22;8903;52.220;20.978;2022-07-05T04:14:04;18.70;99.90
17571;DHT22;8903;52.220;20.978;2022-07-05T04:16:31;18.70;99.90
17571;DHT22;8903;52.220;20.978;2022-07-05T04:19:01;18.80;99.90
17571;DHT22;8903;52.220;20.978;2022-07-05T04:21:30;18.60;99.90
17571;DHT22;8903;52.220;20.978;2022-07-05T04:23:57;18.80;99.90
17571;DHT22;8903;52.220;20.978;2022-07-05T04:26:23;18.80;99.90
17571;DHT22;8903;52.220;20.978;2022-07-05T04:28:50;18.80;99.90
17571;DHT22;8903;52.220;20.978;2022-07-05T04:31:24;18.90;99.90
17571;DHT22;8903;52.220;20.978;2022-07-05T04:33:54;18.90;99.90
17571;DHT22;8903;52.220;20.978;2022-07-05T04:36:25;19.00;99.90
17571;DHT22;8903;52.220;20.978;2022-07-05T04:38:54;19.00;99.90
17571;DHT22;8903;52.220;20.978;2022-07-05T04:41:23;19.10;99.90
17571;DHT22;8903;52.220;20.978;2022-07-05T04:43:49;19.20;99.90
17571;DHT22;8903;52.220;20.978;2022-07-05T04:46:16;19.30;99.90
17571;DHT22;8903;52.220;20.978;2022-07-05T04:48:45;19.30;99.90
17571;DHT22;8903;52.220;20.978;2022-07-05T04:51:14;19.30;99.90
17571;DHT22;8903;52.220;20.978;2022-07-05T04:53:41;19.30;99.90
17571;DHT22;8903;52.220;20.978;2022-07-05T04:56:08;19.40;99.90
17571;DHT22;8903;52.220;20.978;2022-07-05T04:58:35;19.50;99.90
17571;DHT22;8903;52.220;20.978;2022-07-05T05:01:01;19.50;99.90
17571;DHT22;8903;52.220;20.978;2022-07-05T05:03:28;19.50;99.90
17571;DHT22;8903;52.220;20.978;2022-07-05T05:05:56;19.50;99.90
17571;DHT22;8903;52.220;20.978;2022-07-05T05:08:23;19.60;99.90
17571;DHT22;8903;52.220;20.978;2022-07-05T05:10:49;19.60;99.90
17571;DHT22;8903;52.220;20.978;2022-07-05T05:13:16;19.60;99.90
17571;DHT22;8903;52.220;20.978;2022-07-05T05:15:43;19.70;99.90
17571;DHT22;8903;52.220;20.978;2022-07-05T05:18:09;19.80;99.90
17571;DHT22;8903;52.220;20.978;2022-07-05T05:20:36;19.90;99.90
17571;DHT22;8903;52.220;20.978;2022-07-05T05:23:04;20.00;99.90
17571;DHT22;8903;52.220;20.978;2022-07-05T05:25:31;20.10;99.90
17571;DHT22;8903;52.220;20.978;2022-07-05T05:28:00;20.20;99.90
17571;DHT22;8903;52.220;20.978;2022-07-05T05:30:27;20.30;99.90
17571;DHT22;8903;52.220;20.978;2022-07-05T05:32:53;20.40;99.90
17571;DHT22;8903;52.220;20.978;2022-07-05T05:35:20;20.50;99.90
17571;DHT22;8903;52.220;20.978;2022-07-05T05:37:49;20.60;99.90
17571;DHT22;8903;52.220;20.978;2022-07-05T05:40:17;20.60;99.90
17571;DHT22;8903;52.220;20.978;2022-07-05T05:42:44;20.70;99.90
17571;DHT22;8903;52.220;20.978;2022-07-05T05:45:11;20.70;99.90
17571;DHT22;8903;52.220;20.978;2022-07-05T05:47:44;20.80;99.90
17571;DHT22;8903;52.220;20.978;2022-07-05T05:50:11;20.80;99.90
17571;DHT22;8903;52.220;20.978;2022-07-05T05:52:38;20.90;99.90
17571;DHT22;8903;52.220;20.978;2022-07-05T05:55:05;21.00;99.90
17571;DHT22;8903;52.220;20.978;2022-07-05T05:57:34;21.00;99.90
17571;DHT22;8903;52.220;20.978;2022-07-05T06:00:02;21.00;99.90
17571;DHT22;8903;52.220;20.978;2022-07-05T06:02:37;21.00;99.90
17571;DHT22;8903;52.220;20.978;2022-07-05T06:05:04;21.00;99.90
17571;DHT22;8903;52.220;20.978;2022-07-05T06:07:31;21.00;99.90
17571;DHT22;8903;52.220;20.978;2022-07-05T06:09:58;21.00;99.90
17571;DHT22;8903;52.220;20.978;2022-07-05T06:12:24;20.90;99.90
17571;DHT22;8903;52.220;20.978;2022-07-05T06:14:52;20.90;99.90
17571;DHT22;8903;52.220;20.978;2022-07-05T06:17:19;20.90;99.90
17571;DHT22;8903;52.220;20.978;2022-07-05T06:19:46;20.90;99.90
17571;DHT22;8903;52.220;20.978;2022-07-05T06:22:12;20.90;99.90
17571;DHT22;8903;52.220;20.978;2022-07-05T06:24:39;20.90;99.90
17571;DHT22;8903;52.220;20.978;2022-07-05T06:27:05;20.90;99.90
17571;DHT22;8903;52.220;20.978;2022-07-05T06:29:32;21.00;99.90
17571;DHT22;8903;52.220;20.978;2022-07-05T06:32:00;21.10;99.90
17571;DHT22;8903;52.220;20.978;2022-07-05T06:34:27;21.20;99.90
17571;DHT22;8903;52.220;20.978;2022-07-05T06:36:54;21.30;99.90
17571;DHT22;8903;52.220;20.978;2022-07-05T06:39:21;21.40;99.90
17571;DHT22;8903;52.220;20.978;2022-07-05T06:41:48;21.40;99.90
17571;DHT22;8903;52.220;20.978;2022-07-05T06:44:15;21.70;99.90
17571;DHT22;8903;52.220;20.978;2022-07-05T06:46:41;21.70;99.90
17571;DHT22;8903;52.220;20.978;2022-07-05T06:49:09;21.90;99.90
17571;DHT22;8903;52.220;20.978;2022-07-05T06:51:36;22.10;99.90
17571;DHT22;8903;52.220;20.978;2022-07-05T06:54:03;22.30;99.90
17571;DHT22;8903;52.220;20.978;2022-07-05T06:56:29;22.50;99.90
17571;DHT22;8903;52.220;20.978;2022-07-05T06:58:56;22.80;99.90
17571;DHT22;8903;52.220;20.978;2022-07-05T07:01:23;22.90;99.90
17571;DHT22;8903;52.220;20.978;2022-07-05T07:03:49;23.10;99.90
17571;DHT22;8903;52.220;20.978;2022-07-05T07:06:17;23.20;99.90
17571;DHT22;8903;52.220;20.978;2022-07-05T07:08:44;23.30;99.90
17571;DHT22;8903;52.220;20.978;2022-07-05T07:11:28;23.30;99.90
17571;DHT22;8903;52.220;20.978;2022-07-05T07:13:55;23.20;99.90
17571;DHT22;8903;52.220;20.978;2022-07-05T07:16:22;23.20;99.90
17571;DHT22;8903;52.220;20.978;2022-07-05T07:18:49;23.20;99.90
17571;DHT22;8903;52.220;20.978;2022-07-05T07:21:15;23.30;99.90
17571;DHT22;8903;52.220;20.978;2022-07-05T07:23:43;23.30;99.90
17571;DHT22;8903;52.220;20.978;2022-07-05T07:26:10;23.30;99.90
17571;DHT22;8903;52.220;20.978;2022-07-05T07:28:38;24.80;99.90
17571;DHT22;8903;52.220;20.978;2022-07-05T07:31:05;23.50;99.90
17571;DHT22;8903;52.220;20.978;2022-07-05T07:33:32;23.60;99.90
17571;DHT22;8903;52.220;20.978;2022-07-05T07:35:59;23.70;99.90
17571;DHT22;8903;52.220;20.978;2022-07-05T07:38:26;23.90;99.90
17571;DHT22;8903;52.220;20.978;2022-07-05T07:40:54;24.00;99.90
17571;DHT22;8903;52.220;20.978;2022-07-05T07:43:21;24.20;99.90
17571;DHT22;8903;52.220;20.978;2022-07-05T07:45:48;24.30;99.90
17571;DHT22;8903;52.220;20.978;2022-07-05T07:48:18;24.40;99.90
17571;DHT22;8903;52.220;20.978;2022-07-05T07:50:45;24.40;99.90
17571;DHT22;8903;52.220;20.978;2022-07-05T07:53:12;24.30;99.90
17571;DHT22;8903;52.220;20.978;2022-07-05T07:55:39;24.20;99.90
17571;DHT22;8903;52.220;20.978;2022-07-05T07:58:10;24.30;99.90
17571;DHT22;8903;52.220;20.978;2022-07-05T08:00:37;24.30;99.90
17571;DHT22;8903;52.220;20.978;2022-07-05T08:03:03;24.20;99.90
17571;DHT22;8903;52.220;20.978;2022-07-05T08:05:30;24.30;99.90
17571;DHT22;8903;52.220;20.978;2022-07-05T08:07:57;24.40;99.90
17571;DHT22;8903;52.220;20.978;2022-07-05T08:10:24;24.60;99.90
17571;DHT22;8903;52.220;20.978;2022-07-05T08:12:50;24.60;99.90
17571;DHT22;8903;52.220;20.978;2022-07-05T08:15:18;24.80;99.90
17571;DHT22;8903;52.220;20.978;2022-07-05T08:17:45;24.80;99.90
17571;DHT22;8903;52.220;20.978;2022-07-05T08:20:25;24.90;99.90
17571;DHT22;8903;52.220;20.978;2022-07-05T08:23:10;25.00;99.90
17571;DHT22;8903;52.220;20.978;2022-07-05T08:25:36;25.10;99.90
17571;DHT22;8903;52.220;20.978;2022-07-05T08:28:03;25.20;99.90
17571;DHT22;8903;52.220;20.978;2022-07-05T08:30:31;25.30;99.90
17571;DHT22;8903;52.220;20.978;2022-07-05T08:32:58;25.40;99.90
17571;DHT22;8903;52.220;20.978;2022-07-05T08:35:24;25.50;99.90
17571;DHT22;8903;52.220;20.978;2022-07-05T08:37:52;25.30;99.90
17571;DHT22;8903;52.220;20.978;2022-07-05T08:40:18;25.00;99.90
17571;DHT22;8903;52.220;20.978;2022-07-05T08:42:48;25.00;99.90
17571;DHT22;8903;52.220;20.978;2022-07-05T08:45:15;24.80;99.90
17571;DHT22;8903;52.220;20.978;2022-07-05T08:47:43;24.80;99.90
17571;DHT22;8903;52.220;20.978;2022-07-05T08:50:10;24.90;99.90
17571;DHT22;8903;52.220;20.978;2022-07-05T08:52:39;25.10;99.90
17571;DHT22;8903;52.220;20.978;2022-07-05T08:55:07;25.20;99.90
17571;DHT22;8903;52.220;20.978;2022-07-05T08:57:34;25.30;99.90
17571;DHT22;8903;52.220;20.978;2022-07-05T09:00:00;25.30;99.90
17571;DHT22;8903;52.220;20.978;2022-07-05T09:02:27;25.10;99.90
17571;DHT22;8903;52.220;20.978;2022-07-05T09:04:55;25.10;99.90
17571;DHT22;8903;52.220;20.978;2022-07-05T09:07:22;25.20;99.90
17571;DHT22;8903;52.220;20.978;2022-07-05T09:09:51;25.30;99.90
17571;DHT22;8903;52.220;20.978;2022-07-05T09:12:18;25.30;99.90
17571;DHT22;8903;52.220;20.978;2022-07-05T09:14:45;25.30;99.90
17571;DHT22;8903;52.220;20.978;2022-07-05T09:17:12;25.40;99.90
17571;DHT22;8903;52.220;20.978;2022-07-05T09:19:39;25.40;99.90
17571;DHT22;8903;52.220;20.978;2022-07-05T09:22:07;25.50;99.90
17571;DHT22;8903;52.220;20.978;2022-07-05T09:24:42;25.70;99.90
17571;DHT22;8903;52.220;20.978;2022-07-05T09:27:09;25.90;99.90
17571;DHT22;8903;52.220;20.978;2022-07-05T09:29:36;25.90;99.90
17571;DHT22;8903;52.220;20.978;2022-07-05T09:32:03;25.90;99.90
17571;DHT22;8903;52.220;20.978;2022-07-05T09:34:30;26.10;99.90
17571;DHT22;8903;52.220;20.978;2022-07-05T09:37:00;26.30;99.90
17571;DHT22;8903;52.220;20.978;2022-07-05T09:39:38;26.50;99.90
17571;DHT22;8903;52.220;20.978;2022-07-05T09:42:09;26.30;99.90
17571;DHT22;8903;52.220;20.978;2022-07-05T09:44:36;26.00;99.90
17571;DHT22;8903;52.220;20.978;2022-07-05T09:47:06;25.60;99.90
17571;DHT22;8903;52.220;20.978;2022-07-05T09:49:33;25.40;99.90
17571;DHT22;8903;52.220;20.978;2022-07-05T09:52:00;25.50;99.90
17571;DHT22;8903;52.220;20.978;2022-07-05T09:54:26;25.20;99.90
17571;DHT22;8903;52.220;20.978;2022-07-05T09:56:55;25.20;99.90
17571;DHT22;8903;52.220;20.978;2022-07-05T09:59:22;25.30;99.90
17571;DHT22;8903;52.220;20.978;2022-07-05T10:01:49;25.50;99.90
17571;DHT22;8903;52.220;20.978;2022-07-05T10:04:15;25.80;99.90
17571;DHT22;8903;52.220;20.978;2022-07-05T10:06:42;26.00;99.90
17571;DHT22;8903;52.220;20.978;2022-07-05T10:09:09;26.10;99.90
17571;DHT22;8903;52.220;20.978;2022-07-05T10:11:38;26.10;99.90
17571;DHT22;8903;52.220;20.978;2022-07-05T10:14:08;26.20;99.90
17571;DHT22;8903;52.220;20.978;2022-07-05T10:16:36;26.20;99.90
17571;DHT22;8903;52.220;20.978;2022-07-05T10:19:03;26.30;99.90
17571;DHT22;8903;52.220;20.978;2022-07-05T10:21:30;26.30;99.90
17571;DHT22;8903;52.220;20.978;2022-07-05T10:23:57;26.00;99.90
17571;DHT22;8903;52.220;20.978;2022-07-05T10:26:24;26.00;99.90
17571;DHT22;8903;52.220;20.978;2022-07-05T10:28:52;26.00;99.90
17571;DHT22;8903;52.220;20.978;2022-07-05T10:31:20;25.90;99.90
17571;DHT22;8903;52.220;20.978;2022-07-05T10:33:48;25.70;99.90
17571;DHT22;8903;52.220;20.978;2022-07-05T10:36:16;25.60;99.90
17571;DHT22;8903;52.220;20.978;2022-07-05T10:38:43;25.60;99.90
17571;DHT22;8903;52.220;20.978;2022-07-05T10:41:11;25.40;99.90
17571;DHT22;8903;52.220;20.978;2022-07-05T10:43:40;25.50;99.90
17571;DHT22;8903;52.220;20.978;2022-07-05T10:46:08;25.60;99.90
17571;DHT22;8903;52.220;20.978;2022-07-05T10:48:36;25.60;99.90
17571;DHT22;8903;52.220;20.978;2022-07-05T10:51:13;25.70;99.90
17571;DHT22;8903;52.220;20.978;2022-07-05T10:56:25;26.00;99.90
17571;DHT22;8903;52.220;20.978;2022-07-05T10:59:03;26.20;99.90
17571;DHT22;8903;52.220;20.978;2022-07-05T11:07:01;26.50;99.90
17571;DHT22;8903;52.220;20.978;2022-07-05T11:09:29;26.40;99.90
17571;DHT22;8903;52.220;20.978;2022-07-05T11:12:09;26.00;99.90
17571;DHT22;8903;52.220;20.978;2022-07-05T11:14:44;26.10;99.90
17571;DHT22;8903;52.220;20.978;2022-07-05T11:17:12;26.30;99.90
17571;DHT22;8903;52.220;20.978;2022-07-05T11:25:25;26.20;99.90
17571;DHT22;8903;52.220;20.978;2022-07-05T11:30:45;26.50;99.90
17571;DHT22;8903;52.220;20.978;2022-07-05T11:33:28;26.70;99.90
17571;DHT22;8903;52.220;20.978;2022-07-05T11:35:55;26.70;99.90
17571;DHT22;8903;52.220;20.978;2022-07-05T11:38:23;26.80;99.90
17571;DHT22;8903;52.220;20.978;2022-07-05T11:40:51;26.90;99.90
17571;DHT22;8903;52.220;20.978;2022-07-05T11:43:25;26.80;99.90
17571;DHT22;8903;52.220;20.978;2022-07-05T11:45:55;26.60;99.90
17571;DHT22;8903;52.220;20.978;2022-07-05T11:48:21;26.50;99.90
17571;DHT22;8903;52.220;20.978;2022-07-05T11:50:49;26.50;99.90
17571;DHT22;8903;52.220;20.978;2022-07-05T11:53:24;26.00;99.90
17571;DHT22;8903;52.220;20.978;2022-07-05T11:55:54;26.10;99.90
17571;DHT22;8903;52.220;20.978;2022-07-05T11:58:22;26.30;99.90
17571;DHT22;8903;52.220;20.978;2022-07-05T12:00:53;26.30;99.90
17571;DHT22;8903;52.220;20.978;2022-07-05T12:03:20;26.50;99.90
17571;DHT22;8903;52.220;20.978;2022-07-05T12:05:47;26.70;99.90
17571;DHT22;8903;52.220;20.978;2022-07-05T12:08:19;26.60;99.90
17571;DHT22;8903;52.220;20.978;2022-07-05T12:10:45;26.50;99.90
17571;DHT22;8903;52.220;20.978;2022-07-05T12:13:31;26.80;99.90
17571;DHT22;8903;52.220;20.978;2022-07-05T12:15:59;27.10;99.90
17571;DHT22;8903;52.220;20.978;2022-07-05T12:18:26;27.10;99.90
17571;DHT22;8903;52.220;20.978;2022-07-05T12:20:53;26.70;99.90
17571;DHT22;8903;52.220;20.978;2022-07-05T12:23:25;26.60;99.90
17571;DHT22;8903;52.220;20.978;2022-07-05T12:25:52;26.50;99.90
17571;DHT22;8903;52.220;20.978;2022-07-05T12:28:19;26.50;99.90
17571;DHT22;8903;52.220;20.978;2022-07-05T12:30:47;26.60;99.90
17571;DHT22;8903;52.220;20.978;2022-07-05T12:33:14;26.60;99.90
17571;DHT22;8903;52.220;20.978;2022-07-05T12:35:41;26.70;99.90
17571;DHT22;8903;52.220;20.978;2022-07-05T12:38:08;26.60;99.90
17571;DHT22;8903;52.220;20.978;2022-07-05T12:40:36;26.60;99.90
17571;DHT22;8903;52.220;20.978;2022-07-05T12:43:04;26.60;99.90
17571;DHT22;8903;52.220;20.978;2022-07-05T12:45:31;26.50;99.90
17571;DHT22;8903;52.220;20.978;2022-07-05T12:48:00;26.20;99.90
17571;DHT22;8903;52.220;20.978;2022-07-05T12:50:28;26.20;99.90
17571;DHT22;8903;52.220;20.978;2022-07-05T12:52:59;26.20;99.90
17571;DHT22;8903;52.220;20.978;2022-07-05T12:55:47;26.10;99.90
17571;DHT22;8903;52.220;20.978;2022-07-05T12:58:32;25.70;99.90
17571;DHT22;8903;52.220;20.978;2022-07-05T13:00:59;25.40;99.90
17571;DHT22;8903;52.220;20.978;2022-07-05T13:03:27;25.20;99.90
17571;DHT22;8903;52.220;20.978;2022-07-05T13:06:00;25.20;99.90
17571;DHT22;8903;52.220;20.978;2022-07-05T13:08:28;25.10;99.90
17571;DHT22;8903;52.220;20.978;2022-07-05T13:10:55;24.90;99.90
17571;DHT22;8903;52.220;20.978;2022-07-05T13:13:22;24.90;99.90
17571;DHT22;8903;52.220;20.978;2022-07-05T13:15:49;24.80;99.90
17571;DHT22;8903;52.220;20.978;2022-07-05T13:18:22;24.80;99.90
17571;DHT22;8903;52.220;20.978;2022-07-05T13:20:51;24.80;99.90
17571;DHT22;8903;52.220;20.978;2022-07-05T13:23:18;24.70;99.90
17571;DHT22;8903;52.220;20.978;2022-07-05T13:25:45;24.70;99.90
17571;DHT22;8903;52.220;20.978;2022-07-05T13:28:12;24.60;99.90
17571;DHT22;8903;52.220;20.978;2022-07-05T13:30:39;24.50;99.90
17571;DHT22;8903;52.220;20.978;2022-07-05T13:33:06;24.40;99.90
17571;DHT22;8903;52.220;20.978;2022-07-05T13:35:32;24.40;99.90
17571;DHT22;8903;52.220;20.978;2022-07-05T13:38:00;24.20;99.90
17571;DHT22;8903;52.220;20.978;2022-07-05T13:40:27;24.10;99.90
17571;DHT22;8903;52.220;20.978;2022-07-05T13:42:54;24.00;99.90
17571;DHT22;8903;52.220;20.978;2022-07-05T13:45:20;23.90;99.90
17571;DHT22;8903;52.220;20.978;2022-07-05T13:47:47;23.90;99.90
17571;DHT22;8903;52.220;20.978;2022-07-05T13:50:14;23.90;99.90
17571;DHT22;8903;52.220;20.978;2022-07-05T13:53:01;23.80;99.90
17571;DHT22;8903;52.220;20.978;2022-07-05T13:55:28;23.70;99.90
17571;DHT22;8903;52.220;20.978;2022-07-05T13:57:54;23.70;99.90
17571;DHT22;8903;52.220;20.978;2022-07-05T14:00:23;23.50;99.90
17571;DHT22;8903;52.220;20.978;2022-07-05T14:02:49;23.40;99.90
17571;DHT22;8903;52.220;20.978;2022-07-05T14:05:16;23.30;99.90
17571;DHT22;8903;52.220;20.978;2022-07-05T14:07:46;23.20;99.90
17571;DHT22;8903;52.220;20.978;2022-07-05T14:10:14;23.00;99.90
17571;DHT22;8903;52.220;20.978;2022-07-05T14:12:41;23.00;99.90
17571;DHT22;8903;52.220;20.978;2022-07-05T14:15:08;22.90;99.90
17571;DHT22;8903;52.220;20.978;2022-07-05T14:17:35;22.80;99.90
17571;DHT22;8903;52.220;20.978;2022-07-05T14:20:02;22.70;99.90
17571;DHT22;8903;52.220;20.978;2022-07-05T14:22:47;22.70;99.90
17571;DHT22;8903;52.220;20.978;2022-07-05T14:25:15;22.40;99.90
17571;DHT22;8903;52.220;20.978;2022-07-05T14:27:42;22.00;99.90
17571;DHT22;8903;52.220;20.978;2022-07-05T14:30:09;21.90;99.90
17571;DHT22;8903;52.220;20.978;2022-07-05T14:32:36;21.90;99.90
17571;DHT22;8903;52.220;20.978;2022-07-05T14:35:03;21.70;99.90
17571;DHT22;8903;52.220;20.978;2022-07-05T14:37:30;21.80;99.90
17571;DHT22;8903;52.220;20.978;2022-07-05T14:39:57;21.80;99.90
17571;DHT22;8903;52.220;20.978;2022-07-05T14:42:25;21.20;99.90
17571;DHT22;8903;52.220;20.978;2022-07-05T14:44:52;20.60;99.90
17571;DHT22;8903;52.220;20.978;2022-07-05T14:47:19;20.30;99.90
17571;DHT22;8903;52.220;20.978;2022-07-05T14:49:45;20.20;99.90
17571;DHT22;8903;52.220;20.978;2022-07-05T14:52:12;20.20;99.90
17571;DHT22;8903;52.220;20.978;2022-07-05T14:54:39;20.20;99.90
17571;DHT22;8903;52.220;20.978;2022-07-05T14:57:05;20.30;99.90
17571;DHT22;8903;52.220;20.978;2022-07-05T14:59:33;20.30;99.90
17571;DHT22;8903;52.220;20.978;2022-07-05T15:02:00;20.20;99.90
17571;DHT22;8903;52.220;20.978;2022-07-05T15:04:27;20.00;99.90
17571;DHT22;8903;52.220;20.978;2022-07-05T15:06:54;19.50;99.90
17571;DHT22;8903;52.220;20.978;2022-07-05T15:09:21;19.00;99.90
17571;DHT22;8903;52.220;20.978;2022-07-05T15:11:47;18.60;99.90
17571;DHT22;8903;52.220;20.978;2022-07-05T15:14:14;18.40;99.90
17571;DHT22;8903;52.220;20.978;2022-07-05T15:16:42;18.30;99.90
17571;DHT22;8903;52.220;20.978;2022-07-05T15:19:09;18.20;99.90
17571;DHT22;8903;52.220;20.978;2022-07-05T15:21:37;18.30;99.90
17571;DHT22;8903;52.220;20.978;2022-07-05T15:24:29;18.20;99.90
17571;DHT22;8903;52.220;20.978;2022-07-05T15:26:55;18.40;99.90
17571;DHT22;8903;52.220;20.978;2022-07-05T15:29:22;18.30;99.90
17571;DHT22;8903;52.220;20.978;2022-07-05T15:31:51;18.20;99.90
17571;DHT22;8903;52.220;20.978;2022-07-05T15:34:18;18.10;99.90
17571;DHT22;8903;52.220;20.978;2022-07-05T15:36:45;17.90;99.90
17571;DHT22;8903;52.220;20.978;2022-07-05T15:39:11;17.70;99.90
17571;DHT22;8903;52.220;20.978;2022-07-05T15:41:38;17.60;99.90
17571;DHT22;8903;52.220;20.978;2022-07-05T15:44:05;17.40;99.90
17571;DHT22;8903;52.220;20.978;2022-07-05T15:46:32;17.40;99.90
17571;DHT22;8903;52.220;20.978;2022-07-05T15:49:14;17.30;99.90
17571;DHT22;8903;52.220;20.978;2022-07-05T15:51:40;17.30;99.90